Hamsfork, Wyoming
Current Conditions -  °F | °C
As of 12:40 PM on Thursday 27 Nov 2014 (Local Time) from KFBR Reporting Station
Scattered Clouds Scattered Clouds  
Wind Chill: 53°   Ceiling: Unl
Heat Index: 53°   Visibility: 10mi
Dew Point: 25°   Wind: 14mph
Humidity: 33%   Direction: 290°WNW
Pressure: 30.32"   Gusts: NA
Location:  41.8294°N, 110.31°W
Report Text: KFBR 271940Z AUTO 29012KT 10SM SCT120 12/M04 A3032 RMK AO2 T01191039
Loading
Personal Weather Stations






























Interactive Weather Map New forecast layout! Learn more

10-Day Weather Forecast

Advertisements
Track Severe Weather on mobile